sensor_id;sensor_type;location;lat;lon;timestamp;pressure;altitude;pressure_sealevel;temperature;humidity
9899;BME280;4988;49.238;6.698;2022-07-11T00:02:19;99802.81;;;19.92;59.88
9899;BME280;4988;49.238;6.698;2022-07-11T00:04:45;99806.09;;;19.85;60.29
9899;BME280;4988;49.238;6.698;2022-07-11T00:07:13;99803.72;;;19.80;60.49
9899;BME280;4988;49.238;6.698;2022-07-11T00:09:39;99805.88;;;19.75;60.78
9899;BME280;4988;49.238;6.698;2022-07-11T00:12:05;99800.69;;;19.72;61.31
9899;BME280;4988;49.238;6.698;2022-07-11T00:14:31;99799.09;;;19.69;64.04
9899;BME280;4988;49.238;6.698;2022-07-11T00:16:56;99802.56;;;19.58;64.56
9899;BME280;4988;49.238;6.698;2022-07-11T00:19:22;99803.66;;;19.56;65.03
9899;BME280;4988;49.238;6.698;2022-07-11T00:21:52;99798.69;;;19.63;63.70
9899;BME280;4988;49.238;6.698;2022-07-11T00:24:18;99790.81;;;19.59;63.76
9899;BME280;4988;49.238;6.698;2022-07-11T00:26:48;99790.91;;;19.58;64.94
9899;BME280;4988;49.238;6.698;2022-07-11T00:29:14;99784.34;;;19.49;65.59
9899;BME280;4988;49.238;6.698;2022-07-11T00:31:39;99788.28;;;19.45;65.89
9899;BME280;4988;49.238;6.698;2022-07-11T00:34:05;99795.72;;;19.28;66.57
9899;BME280;4988;49.238;6.698;2022-07-11T00:36:30;99789.50;;;19.15;67.32
9899;BME280;4988;49.238;6.698;2022-07-11T00:38:57;99797.06;;;18.97;68.43
9899;BME280;4988;49.238;6.698;2022-07-11T00:41:22;99793.38;;;18.85;69.05
9899;BME280;4988;49.238;6.698;2022-07-11T00:43:53;99805.88;;;18.86;69.16
9899;BME280;4988;49.238;6.698;2022-07-11T00:46:19;99795.44;;;18.94;68.76
9899;BME280;4988;49.238;6.698;2022-07-11T00:48:44;99797.69;;;19.13;68.35
9899;BME280;4988;49.238;6.698;2022-07-11T00:51:10;99795.78;;;19.16;68.28
9899;BME280;4988;49.238;6.698;2022-07-11T00:53:36;99797.47;;;19.17;68.03
9899;BME280;4988;49.238;6.698;2022-07-11T00:56:02;99789.16;;;19.20;68.02
9899;BME280;4988;49.238;6.698;2022-07-11T00:58:27;99777.28;;;19.22;68.02
9899;BME280;4988;49.238;6.698;2022-07-11T01:00:53;99776.06;;;19.26;67.44
9899;BME280;4988;49.238;6.698;2022-07-11T01:03:18;99778.78;;;19.26;67.02
9899;BME280;4988;49.238;6.698;2022-07-11T01:05:44;99779.22;;;19.20;67.81
9899;BME280;4988;49.238;6.698;2022-07-11T01:08:09;99781.38;;;19.15;68.08
9899;BME280;4988;49.238;6.698;2022-07-11T01:10:35;99787.56;;;19.17;68.09
9899;BME280;4988;49.238;6.698;2022-07-11T01:13:00;99789.59;;;19.13;67.39
9899;BME280;4988;49.238;6.698;2022-07-11T01:15:26;99778.28;;;19.08;67.24
9899;BME280;4988;49.238;6.698;2022-07-11T01:17:51;99781.81;;;19.09;67.39
9899;BME280;4988;49.238;6.698;2022-07-11T01:20:18;99780.66;;;19.00;69.24
9899;BME280;4988;49.238;6.698;2022-07-11T01:22:47;99782.94;;;18.93;69.91
9899;BME280;4988;49.238;6.698;2022-07-11T01:25:16;99777.44;;;18.95;70.15
9899;BME280;4988;49.238;6.698;2022-07-11T01:27:58;99781.94;;;18.94;70.04
9899;BME280;4988;49.238;6.698;2022-07-11T01:30:29;99775.50;;;18.97;69.94
9899;BME280;4988;49.238;6.698;2022-07-11T01:32:55;99774.16;;;18.90;70.04
9899;BME280;4988;49.238;6.698;2022-07-11T01:35:21;99768.69;;;18.91;70.43
9899;BME280;4988;49.238;6.698;2022-07-11T01:37:47;99768.84;;;18.88;70.13
9899;BME280;4988;49.238;6.698;2022-07-11T01:40:13;99772.09;;;18.80;70.98
9899;BME280;4988;49.238;6.698;2022-07-11T01:42:39;99765.53;;;18.72;71.14
9899;BME280;4988;49.238;6.698;2022-07-11T01:45:05;99768.13;;;18.60;71.36
9899;BME280;4988;49.238;6.698;2022-07-11T01:47:30;99768.97;;;18.48;72.62
9899;BME280;4988;49.238;6.698;2022-07-11T01:49:55;99780.78;;;18.32;73.09
9899;BME280;4988;49.238;6.698;2022-07-11T01:52:21;99774.31;;;18.22;73.54
9899;BME280;4988;49.238;6.698;2022-07-11T01:54:46;99768.00;;;18.09;74.05
9899;BME280;4988;49.238;6.698;2022-07-11T01:57:12;99770.81;;;18.07;73.91
9899;BME280;4988;49.238;6.698;2022-07-11T01:59:38;99766.09;;;18.11;73.64
9899;BME280;4988;49.238;6.698;2022-07-11T02:02:03;99772.03;;;18.16;73.73
9899;BME280;4988;49.238;6.698;2022-07-11T02:04:29;99774.97;;;18.26;73.82
9899;BME280;4988;49.238;6.698;2022-07-11T02:06:54;99774.06;;;18.25;73.73
9899;BME280;4988;49.238;6.698;2022-07-11T02:09:19;99775.38;;;18.20;74.30
9899;BME280;4988;49.238;6.698;2022-07-11T02:11:45;99772.47;;;18.23;74.16
9899;BME280;4988;49.238;6.698;2022-07-11T02:14:11;99758.38;;;18.45;73.69
9899;BME280;4988;49.238;6.698;2022-07-11T02:16:36;99758.50;;;18.43;73.66
9899;BME280;4988;49.238;6.698;2022-07-11T02:19:02;99759.13;;;18.47;72.97
9899;BME280;4988;49.238;6.698;2022-07-11T02:21:27;99759.38;;;18.57;72.23
9899;BME280;4988;49.238;6.698;2022-07-11T02:23:52;99765.72;;;18.56;71.59
9899;BME280;4988;49.238;6.698;2022-07-11T02:26:18;99760.97;;;18.59;70.89
9899;BME280;4988;49.238;6.698;2022-07-11T02:28:43;99765.75;;;18.69;70.31
9899;BME280;4988;49.238;6.698;2022-07-11T02:31:10;99762.59;;;18.62;70.46
9899;BME280;4988;49.238;6.698;2022-07-11T02:33:35;99766.38;;;18.59;70.00
9899;BME280;4988;49.238;6.698;2022-07-11T02:36:00;99757.31;;;18.60;70.05
9899;BME280;4988;49.238;6.698;2022-07-11T02:38:26;99758.28;;;18.59;70.13
9899;BME280;4988;49.238;6.698;2022-07-11T02:40:51;99764.53;;;18.47;71.76
9899;BME280;4988;49.238;6.698;2022-07-11T02:43:17;99764.25;;;18.11;74.06
9899;BME280;4988;49.238;6.698;2022-07-11T02:45:42;99761.94;;;17.78;74.79
9899;BME280;4988;49.238;6.698;2022-07-11T02:48:08;99762.66;;;17.67;75.01
9899;BME280;4988;49.238;6.698;2022-07-11T02:50:33;99764.13;;;17.58;75.43
9899;BME280;4988;49.238;6.698;2022-07-11T02:52:59;99765.47;;;17.51;76.33
9899;BME280;4988;49.238;6.698;2022-07-11T02:55:24;99764.03;;;17.45;76.75
9899;BME280;4988;49.238;6.698;2022-07-11T02:57:49;99762.53;;;17.41;76.71
9899;BME280;4988;49.238;6.698;2022-07-11T03:00:17;99762.63;;;17.40;77.18
9899;BME280;4988;49.238;6.698;2022-07-11T03:02:43;99756.97;;;17.44;76.82
9899;BME280;4988;49.238;6.698;2022-07-11T03:05:08;99755.69;;;17.50;76.76
9899;BME280;4988;49.238;6.698;2022-07-11T03:07:34;99759.53;;;17.46;76.67
9899;BME280;4988;49.238;6.698;2022-07-11T03:10:00;99757.59;;;17.48;76.62
9899;BME280;4988;49.238;6.698;2022-07-11T03:12:25;99752.28;;;17.61;75.63
9899;BME280;4988;49.238;6.698;2022-07-11T03:14:50;99754.06;;;17.75;75.59
9899;BME280;4988;49.238;6.698;2022-07-11T03:17:16;99750.00;;;17.82;75.10
9899;BME280;4988;49.238;6.698;2022-07-11T03:19:42;99750.22;;;17.79;75.24
9899;BME280;4988;49.238;6.698;2022-07-11T03:22:07;99750.63;;;17.73;75.22
9899;BME280;4988;49.238;6.698;2022-07-11T03:24:33;99745.31;;;17.71;75.12
9899;BME280;4988;49.238;6.698;2022-07-11T03:26:58;99745.44;;;17.69;75.02
9899;BME280;4988;49.238;6.698;2022-07-11T03:29:23;99750.03;;;17.67;75.10
9899;BME280;4988;49.238;6.698;2022-07-11T03:31:49;99754.88;;;17.62;75.41
9899;BME280;4988;49.238;6.698;2022-07-11T03:34:14;99753.06;;;17.63;75.36
9899;BME280;4988;49.238;6.698;2022-07-11T03:36:40;99755.66;;;17.64;75.28
9899;BME280;4988;49.238;6.698;2022-07-11T03:39:05;99751.63;;;17.57;75.62
9899;BME280;4988;49.238;6.698;2022-07-11T03:41:30;99756.06;;;17.44;76.09
9899;BME280;4988;49.238;6.698;2022-07-11T03:43:56;99757.13;;;17.41;76.53
9899;BME280;4988;49.238;6.698;2022-07-11T03:46:22;99755.41;;;17.40;76.88
9899;BME280;4988;49.238;6.698;2022-07-11T03:48:47;99751.19;;;17.36;76.81
9899;BME280;4988;49.238;6.698;2022-07-11T03:51:13;99756.59;;;17.22;77.58
9899;BME280;4988;49.238;6.698;2022-07-11T03:53:38;99752.28;;;17.19;77.87
9899;BME280;4988;49.238;6.698;2022-07-11T03:56:04;99751.59;;;17.01;79.00
9899;BME280;4988;49.238;6.698;2022-07-11T03:58:29;99754.88;;;16.92;79.36
9899;BME280;4988;49.238;6.698;2022-07-11T04:00:54;99754.19;;;16.88;79.52
9899;BME280;4988;49.238;6.698;2022-07-11T04:03:20;99751.97;;;16.80;80.33
9899;BME280;4988;49.238;6.698;2022-07-11T04:05:45;99750.50;;;16.60;81.52
9899;BME280;4988;49.238;6.698;2022-07-11T04:08:10;99752.13;;;16.48;81.83
9899;BME280;4988;49.238;6.698;2022-07-11T04:10:36;99753.53;;;16.39;82.68
9899;BME280;4988;49.238;6.698;2022-07-11T04:13:01;99757.88;;;16.56;82.03
9899;BME280;4988;49.238;6.698;2022-07-11T04:15:26;99756.09;;;16.57;81.91
9899;BME280;4988;49.238;6.698;2022-07-11T04:17:52;99755.00;;;16.45;82.32
9899;BME280;4988;49.238;6.698;2022-07-11T04:20:17;99758.25;;;16.36;83.06
9899;BME280;4988;49.238;6.698;2022-07-11T04:22:43;99752.00;;;16.35;83.10
9899;BME280;4988;49.238;6.698;2022-07-11T04:25:08;99763.00;;;16.31;83.57
9899;BME280;4988;49.238;6.698;2022-07-11T04:27:34;99762.34;;;16.27;83.84
9899;BME280;4988;49.238;6.698;2022-07-11T04:29:59;99758.53;;;16.31;83.92
9899;BME280;4988;49.238;6.698;2022-07-11T04:32:24;99759.00;;;16.38;83.29
9899;BME280;4988;49.238;6.698;2022-07-11T04:34:50;99760.28;;;16.47;82.42
9899;BME280;4988;49.238;6.698;2022-07-11T04:37:15;99753.66;;;16.52;82.76
9899;BME280;4988;49.238;6.698;2022-07-11T04:39:40;99755.03;;;16.60;82.54
9899;BME280;4988;49.238;6.698;2022-07-11T04:42:06;99763.97;;;16.75;82.10
9899;BME280;4988;49.238;6.698;2022-07-11T04:44:32;99767.44;;;16.77;81.75
9899;BME280;4988;49.238;6.698;2022-07-11T04:46:58;99756.31;;;16.83;81.26
9899;BME280;4988;49.238;6.698;2022-07-11T04:49:23;99754.47;;;16.83;81.71
9899;BME280;4988;49.238;6.698;2022-07-11T04:51:48;99755.25;;;16.85;81.39
9899;BME280;4988;49.238;6.698;2022-07-11T04:54:14;99752.44;;;16.87;81.47
9899;BME280;4988;49.238;6.698;2022-07-11T04:56:41;99761.13;;;16.92;81.03
9899;BME280;4988;49.238;6.698;2022-07-11T04:59:06;99762.69;;;16.96;80.99
9899;BME280;4988;49.238;6.698;2022-07-11T05:01:33;99763.34;;;17.00;80.55
9899;BME280;4988;49.238;6.698;2022-07-11T05:03:58;99771.22;;;17.17;80.04
9899;BME280;4988;49.238;6.698;2022-07-11T05:06:23;99767.44;;;17.34;78.55
9899;BME280;4988;49.238;6.698;2022-07-11T05:08:49;99762.22;;;17.46;77.55
9899;BME280;4988;49.238;6.698;2022-07-11T05:11:14;99770.28;;;17.60;77.08
9899;BME280;4988;49.238;6.698;2022-07-11T05:13:40;99777.97;;;17.66;76.81
9899;BME280;4988;49.238;6.698;2022-07-11T05:16:05;99781.75;;;17.77;76.91
9899;BME280;4988;49.238;6.698;2022-07-11T05:18:31;99780.59;;;17.81;76.38
9899;BME280;4988;49.238;6.698;2022-07-11T05:20:57;99772.66;;;17.92;75.80
9899;BME280;4988;49.238;6.698;2022-07-11T05:23:22;99775.31;;;18.07;75.45
9899;BME280;4988;49.238;6.698;2022-07-11T05:25:48;99779.41;;;17.99;75.44
9899;BME280;4988;49.238;6.698;2022-07-11T05:28:13;99783.41;;;18.07;75.71
9899;BME280;4988;49.238;6.698;2022-07-11T05:30:38;99786.47;;;18.15;75.31
9899;BME280;4988;49.238;6.698;2022-07-11T05:33:04;99795.22;;;18.31;75.28
9899;BME280;4988;49.238;6.698;2022-07-11T05:35:29;99784.69;;;18.41;75.25
9899;BME280;4988;49.238;6.698;2022-07-11T05:37:55;99789.69;;;18.60;74.05
9899;BME280;4988;49.238;6.698;2022-07-11T05:40:20;99787.09;;;18.72;73.51
9899;BME280;4988;49.238;6.698;2022-07-11T05:42:45;99792.59;;;18.70;73.29
9899;BME280;4988;49.238;6.698;2022-07-11T05:45:11;99793.22;;;18.61;73.71
9899;BME280;4988;49.238;6.698;2022-07-11T05:47:36;99794.41;;;18.57;73.68
9899;BME280;4988;49.238;6.698;2022-07-11T05:50:02;99791.84;;;18.68;73.25
9899;BME280;4988;49.238;6.698;2022-07-11T05:52:27;99785.91;;;18.89;72.88
9899;BME280;4988;49.238;6.698;2022-07-11T05:54:53;99780.97;;;19.08;72.25
9899;BME280;4988;49.238;6.698;2022-07-11T05:57:19;99774.47;;;19.24;71.10
9899;BME280;4988;49.238;6.698;2022-07-11T05:59:45;99777.78;;;19.40;70.54
9899;BME280;4988;49.238;6.698;2022-07-11T06:02:11;99779.94;;;19.48;69.37
9899;BME280;4988;49.238;6.698;2022-07-11T06:04:36;99779.03;;;19.60;69.70
9899;BME280;4988;49.238;6.698;2022-07-11T06:07:02;99777.03;;;19.88;68.22
9899;BME280;4988;49.238;6.698;2022-07-11T06:09:27;99776.44;;;20.20;65.50
9899;BME280;4988;49.238;6.698;2022-07-11T06:11:53;99778.34;;;20.43;63.48
9899;BME280;4988;49.238;6.698;2022-07-11T06:14:18;99776.41;;;20.56;63.22
9899;BME280;4988;49.238;6.698;2022-07-11T06:16:44;99775.56;;;20.67;62.34
9899;BME280;4988;49.238;6.698;2022-07-11T06:19:09;99777.97;;;20.83;61.77
9899;BME280;4988;49.238;6.698;2022-07-11T06:21:34;99784.75;;;21.00;61.38
9899;BME280;4988;49.238;6.698;2022-07-11T06:24:00;99787.34;;;21.13;60.74
9899;BME280;4988;49.238;6.698;2022-07-11T06:26:25;99777.84;;;21.18;60.88
9899;BME280;4988;49.238;6.698;2022-07-11T06:28:50;99782.06;;;21.23;61.02
9899;BME280;4988;49.238;6.698;2022-07-11T06:31:16;99779.56;;;21.31;61.23
9899;BME280;4988;49.238;6.698;2022-07-11T06:33:42;99775.63;;;21.46;59.85
9899;BME280;4988;49.238;6.698;2022-07-11T06:36:07;99778.22;;;21.48;60.75
9899;BME280;4988;49.238;6.698;2022-07-11T06:38:33;99775.78;;;21.56;59.84
9899;BME280;4988;49.238;6.698;2022-07-11T06:40:59;99773.06;;;21.56;59.69
9899;BME280;4988;49.238;6.698;2022-07-11T06:43:25;99783.03;;;21.67;60.18
9899;BME280;4988;49.238;6.698;2022-07-11T06:45:51;99779.53;;;21.76;59.70
9899;BME280;4988;49.238;6.698;2022-07-11T06:48:17;99778.09;;;21.72;59.55
9899;BME280;4988;49.238;6.698;2022-07-11T06:50:42;99779.78;;;21.84;60.00
9899;BME280;4988;49.238;6.698;2022-07-11T06:53:08;99780.00;;;21.93;58.80
9899;BME280;4988;49.238;6.698;2022-07-11T06:55:33;99777.50;;;22.01;58.40
9899;BME280;4988;49.238;6.698;2022-07-11T06:57:59;99777.03;;;21.96;58.62
9899;BME280;4988;49.238;6.698;2022-07-11T07:00:25;99778.75;;;21.97;59.07
9899;BME280;4988;49.238;6.698;2022-07-11T07:02:54;99772.91;;;22.13;58.76
9899;BME280;4988;49.238;6.698;2022-07-11T07:05:20;99772.53;;;22.17;57.68
9899;BME280;4988;49.238;6.698;2022-07-11T07:07:45;99763.41;;;22.19;57.46
9899;BME280;4988;49.238;6.698;2022-07-11T07:10:10;99762.88;;;22.25;57.57
9899;BME280;4988;49.238;6.698;2022-07-11T07:12:39;99763.53;;;22.38;56.81
9899;BME280;4988;49.238;6.698;2022-07-11T07:15:05;99767.34;;;22.36;56.85
9899;BME280;4988;49.238;6.698;2022-07-11T07:17:31;99770.94;;;22.36;56.56
9899;BME280;4988;49.238;6.698;2022-07-11T07:19:56;99779.59;;;22.41;56.18
9899;BME280;4988;49.238;6.698;2022-07-11T07:22:22;99773.66;;;22.36;56.01
9899;BME280;4988;49.238;6.698;2022-07-11T07:24:47;99775.63;;;22.34;56.72
9899;BME280;4988;49.238;6.698;2022-07-11T07:27:12;99775.13;;;22.40;56.68
9899;BME280;4988;49.238;6.698;2022-07-11T07:29:38;99763.09;;;22.54;55.65
9899;BME280;4988;49.238;6.698;2022-07-11T07:32:04;99772.31;;;22.63;55.39
9899;BME280;4988;49.238;6.698;2022-07-11T07:34:31;99770.19;;;22.67;55.64
9899;BME280;4988;49.238;6.698;2022-07-11T07:36:57;99769.06;;;22.69;55.23
9899;BME280;4988;49.238;6.698;2022-07-11T07:39:22;99771.66;;;22.71;55.38
9899;BME280;4988;49.238;6.698;2022-07-11T07:41:48;99776.78;;;22.74;55.40
9899;BME280;4988;49.238;6.698;2022-07-11T07:44:13;99769.19;;;22.89;54.71
9899;BME280;4988;49.238;6.698;2022-07-11T07:46:38;99765.50;;;23.00;54.36
9899;BME280;4988;49.238;6.698;2022-07-11T07:49:04;99775.81;;;23.06;53.90
9899;BME280;4988;49.238;6.698;2022-07-11T07:51:29;99762.06;;;23.19;54.08
9899;BME280;4988;49.238;6.698;2022-07-11T07:53:55;99761.75;;;23.22;53.06
9899;BME280;4988;49.238;6.698;2022-07-11T07:56:20;99758.25;;;23.31;53.26
9899;BME280;4988;49.238;6.698;2022-07-11T07:58:46;99756.97;;;23.35;52.99
9899;BME280;4988;49.238;6.698;2022-07-11T08:01:11;99762.44;;;23.45;53.04
9899;BME280;4988;49.238;6.698;2022-07-11T08:03:55;99765.88;;;23.47;52.41
9899;BME280;4988;49.238;6.698;2022-07-11T08:06:21;99756.00;;;23.46;52.76
9899;BME280;4988;49.238;6.698;2022-07-11T08:08:46;99758.53;;;23.38;52.74
9899;BME280;4988;49.238;6.698;2022-07-11T08:11:12;99759.19;;;23.20;53.81
9899;BME280;4988;49.238;6.698;2022-07-11T08:13:37;99749.75;;;23.24;53.86
9899;BME280;4988;49.238;6.698;2022-07-11T08:16:05;99757.09;;;23.34;53.26
9899;BME280;4988;49.238;6.698;2022-07-11T08:18:31;99759.25;;;23.40;52.63
9899;BME280;4988;49.238;6.698;2022-07-11T08:20:56;99758.41;;;23.39;53.13
9899;BME280;4988;49.238;6.698;2022-07-11T08:23:21;99755.41;;;23.42;52.86
9899;BME280;4988;49.238;6.698;2022-07-11T08:25:47;99761.06;;;23.20;53.64
9899;BME280;4988;49.238;6.698;2022-07-11T08:28:12;99761.34;;;22.95;54.53
9899;BME280;4988;49.238;6.698;2022-07-11T08:30:37;99764.47;;;22.91;53.88
9899;BME280;4988;49.238;6.698;2022-07-11T08:33:03;99761.59;;;23.13;53.69
9899;BME280;4988;49.238;6.698;2022-07-11T08:35:28;99758.78;;;23.25;53.00
9899;BME280;4988;49.238;6.698;2022-07-11T08:37:54;99756.81;;;23.27;52.77
9899;BME280;4988;49.238;6.698;2022-07-11T08:40:19;99760.34;;;23.18;53.06
9899;BME280;4988;49.238;6.698;2022-07-11T08:42:45;99774.69;;;23.08;52.91
9899;BME280;4988;49.238;6.698;2022-07-11T08:45:14;99767.81;;;23.04;53.59
9899;BME280;4988;49.238;6.698;2022-07-11T08:47:41;99761.34;;;22.95;53.90
9899;BME280;4988;49.238;6.698;2022-07-11T08:50:08;99763.91;;;22.97;54.04
9899;BME280;4988;49.238;6.698;2022-07-11T08:52:34;99766.69;;;23.07;53.85
9899;BME280;4988;49.238;6.698;2022-07-11T08:55:02;99759.56;;;23.16;53.96
9899;BME280;4988;49.238;6.698;2022-07-11T08:57:32;99743.78;;;23.31;53.67
9899;BME280;4988;49.238;6.698;2022-07-11T08:59:58;99762.56;;;23.43;53.63
9899;BME280;4988;49.238;6.698;2022-07-11T09:02:24;99754.72;;;23.60;52.87
9899;BME280;4988;49.238;6.698;2022-07-11T09:04:49;99753.19;;;23.77;52.85
9899;BME280;4988;49.238;6.698;2022-07-11T09:07:15;99753.22;;;23.87;52.09
9899;BME280;4988;49.238;6.698;2022-07-11T09:09:40;99760.56;;;23.96;52.09
9899;BME280;4988;49.238;6.698;2022-07-11T09:12:14;99749.81;;;24.04;51.81
9899;BME280;4988;49.238;6.698;2022-07-11T09:14:46;99741.53;;;24.16;51.82
9899;BME280;4988;49.238;6.698;2022-07-11T09:17:12;99734.19;;;24.46;52.26
9899;BME280;4988;49.238;6.698;2022-07-11T09:19:38;99748.03;;;24.72;50.68
9899;BME280;4988;49.238;6.698;2022-07-11T09:22:11;99751.59;;;24.92;50.45
9899;BME280;4988;49.238;6.698;2022-07-11T09:24:59;99745.50;;;25.08;49.04
9899;BME280;4988;49.238;6.698;2022-07-11T09:28:00;99742.25;;;24.95;48.97
9899;BME280;4988;49.238;6.698;2022-07-11T09:30:31;99747.75;;;24.85;49.46
9899;BME280;4988;49.238;6.698;2022-07-11T09:32:59;99742.69;;;24.90;50.04
9899;BME280;4988;49.238;6.698;2022-07-11T09:35:31;99731.00;;;25.08;49.86
9899;BME280;4988;49.238;6.698;2022-07-11T09:37:57;99734.47;;;25.10;50.10
9899;BME280;4988;49.238;6.698;2022-07-11T09:40:22;99740.91;;;25.09;49.83
9899;BME280;4988;49.238;6.698;2022-07-11T09:42:57;99734.13;;;25.13;49.15
9899;BME280;4988;49.238;6.698;2022-07-11T09:45:24;99735.31;;;25.10;49.26
9899;BME280;4988;49.238;6.698;2022-07-11T09:47:51;99732.72;;;25.09;48.94
9899;BME280;4988;49.238;6.698;2022-07-11T09:50:18;99738.06;;;25.00;49.27
9899;BME280;4988;49.238;6.698;2022-07-11T09:53:10;99727.88;;;25.02;49.08
9899;BME280;4988;49.238;6.698;2022-07-11T09:55:36;99737.31;;;25.18;49.06
9899;BME280;4988;49.238;6.698;2022-07-11T09:58:06;99738.09;;;25.28;48.84
9899;BME280;4988;49.238;6.698;2022-07-11T10:00:32;99730.97;;;25.17;48.79
9899;BME280;4988;49.238;6.698;2022-07-11T10:02:59;99733.22;;;24.94;49.22
9899;BME280;4988;49.238;6.698;2022-07-11T10:05:25;99733.66;;;24.89;49.40
9899;BME280;4988;49.238;6.698;2022-07-11T10:07:50;99733.13;;;24.86;49.97
9899;BME280;4988;49.238;6.698;2022-07-11T10:10:16;99722.50;;;24.83;50.19
9899;BME280;4988;49.238;6.698;2022-07-11T10:12:44;99729.97;;;24.81;50.01
9899;BME280;4988;49.238;6.698;2022-07-11T10:15:14;99733.00;;;24.78;50.42
9899;BME280;4988;49.238;6.698;2022-07-11T10:18:13;99731.97;;;24.88;50.34
9899;BME280;4988;49.238;6.698;2022-07-11T10:20:50;99726.88;;;25.03;49.54
9899;BME280;4988;49.238;6.698;2022-07-11T10:23:36;99728.88;;;25.01;49.36
9899;BME280;4988;49.238;6.698;2022-07-11T10:26:14;99731.94;;;24.98;49.87
9899;BME280;4988;49.238;6.698;2022-07-11T10:28:48;99730.84;;;25.09;50.18
9899;BME280;4988;49.238;6.698;2022-07-11T10:31:20;99722.50;;;25.20;49.65
9899;BME280;4988;49.238;6.698;2022-07-11T10:34:00;99722.31;;;25.32;49.23
9899;BME280;4988;49.238;6.698;2022-07-11T10:36:29;99727.13;;;25.48;49.14
9899;BME280;4988;49.238;6.698;2022-07-11T10:39:20;99725.44;;;25.83;48.59
9899;BME280;4988;49.238;6.698;2022-07-11T10:41:56;99724.59;;;26.19;47.80
9899;BME280;4988;49.238;6.698;2022-07-11T10:44:23;99714.69;;;26.17;47.25
9899;BME280;4988;49.238;6.698;2022-07-11T10:46:48;99720.31;;;26.16;47.93
9899;BME280;4988;49.238;6.698;2022-07-11T11:00:10;99697.78;;;25.78;48.47
9899;BME280;4988;49.238;6.698;2022-07-11T11:03:07;99699.16;;;25.82;48.37
9899;BME280;4988;49.238;6.698;2022-07-11T11:05:50;99699.56;;;25.87;47.96
9899;BME280;4988;49.238;6.698;2022-07-11T11:08:48;99697.47;;;25.63;48.18
9899;BME280;4988;49.238;6.698;2022-07-11T11:13:44;99702.34;;;25.59;49.02
9899;BME280;4988;49.238;6.698;2022-07-11T11:16:21;99700.97;;;25.55;48.24
9899;BME280;4988;49.238;6.698;2022-07-11T11:18:50;99709.16;;;25.55;48.42
9899;BME280;4988;49.238;6.698;2022-07-11T11:21:17;99711.72;;;25.75;48.92
9899;BME280;4988;49.238;6.698;2022-07-11T11:23:45;99705.94;;;25.78;48.33
9899;BME280;4988;49.238;6.698;2022-07-11T11:31:27;99718.06;;;25.47;48.95
9899;BME280;4988;49.238;6.698;2022-07-11T11:33:55;99711.47;;;25.50;48.61
9899;BME280;4988;49.238;6.698;2022-07-11T11:36:23;99718.50;;;25.52;48.88
9899;BME280;4988;49.238;6.698;2022-07-11T11:38:50;99716.94;;;25.68;48.32
9899;BME280;4988;49.238;6.698;2022-07-11T11:41:41;99701.38;;;25.78;48.67
9899;BME280;4988;49.238;6.698;2022-07-11T11:44:07;99697.31;;;25.82;48.30
9899;BME280;4988;49.238;6.698;2022-07-11T11:46:33;99696.97;;;25.85;48.36
9899;BME280;4988;49.238;6.698;2022-07-11T11:49:03;99697.59;;;25.79;48.45
9899;BME280;4988;49.238;6.698;2022-07-11T11:51:31;99690.22;;;25.72;48.45
9899;BME280;4988;49.238;6.698;2022-07-11T11:53:58;99689.69;;;25.86;48.87
9899;BME280;4988;49.238;6.698;2022-07-11T11:56:33;99695.28;;;26.21;48.09
9899;BME280;4988;49.238;6.698;2022-07-11T11:59:10;99685.78;;;26.51;46.86
9899;BME280;4988;49.238;6.698;2022-07-11T12:01:43;99677.84;;;26.66;46.22
9899;BME280;4988;49.238;6.698;2022-07-11T12:04:13;99681.38;;;26.58;46.63
9899;BME280;4988;49.238;6.698;2022-07-11T12:06:44;99678.97;;;26.55;46.64
9899;BME280;4988;49.238;6.698;2022-07-11T12:09:16;99682.63;;;26.38;46.98
9899;BME280;4988;49.238;6.698;2022-07-11T12:11:47;99680.47;;;26.49;47.15
9899;BME280;4988;49.238;6.698;2022-07-11T12:14:15;99685.16;;;26.57;46.50
9899;BME280;4988;49.238;6.698;2022-07-11T12:16:42;99694.00;;;26.59;46.49
9899;BME280;4988;49.238;6.698;2022-07-11T12:19:11;99682.13;;;26.69;46.54
9899;BME280;4988;49.238;6.698;2022-07-11T12:21:38;99679.69;;;26.84;45.86
9899;BME280;4988;49.238;6.698;2022-07-11T12:24:08;99679.56;;;26.93;46.27
9899;BME280;4988;49.238;6.698;2022-07-11T12:26:36;99686.94;;;27.01;45.98
9899;BME280;4988;49.238;6.698;2022-07-11T12:34:07;99673.50;;;26.81;46.19
9899;BME280;4988;49.238;6.698;2022-07-11T12:36:33;99672.50;;;26.83;45.74
9899;BME280;4988;49.238;6.698;2022-07-11T12:38:58;99669.31;;;26.69;45.58
9899;BME280;4988;49.238;6.698;2022-07-11T12:41:24;99668.13;;;26.63;45.87
9899;BME280;4988;49.238;6.698;2022-07-11T12:43:50;99661.81;;;26.71;46.41
9899;BME280;4988;49.238;6.698;2022-07-11T12:46:35;99656.72;;;27.03;45.72
9899;BME280;4988;49.238;6.698;2022-07-11T12:49:03;99662.25;;;27.19;45.34
9899;BME280;4988;49.238;6.698;2022-07-11T12:51:32;99663.16;;;27.36;45.12
9899;BME280;4988;49.238;6.698;2022-07-11T12:54:03;99652.53;;;27.33;44.70
9899;BME280;4988;49.238;6.698;2022-07-11T12:56:28;99651.69;;;27.33;44.44
9899;BME280;4988;49.238;6.698;2022-07-11T12:58:54;99650.63;;;27.25;45.06
9899;BME280;4988;49.238;6.698;2022-07-11T13:01:19;99647.53;;;27.12;45.34
9899;BME280;4988;49.238;6.698;2022-07-11T13:03:45;99653.41;;;26.91;45.54
9899;BME280;4988;49.238;6.698;2022-07-11T13:06:10;99651.47;;;26.75;45.31
9899;BME280;4988;49.238;6.698;2022-07-11T13:08:36;99656.53;;;26.70;45.39
9899;BME280;4988;49.238;6.698;2022-07-11T13:11:21;99656.19;;;26.64;45.83
9899;BME280;4988;49.238;6.698;2022-07-11T13:13:50;99656.09;;;26.83;45.33
9899;BME280;4988;49.238;6.698;2022-07-11T13:16:17;99647.56;;;26.77;45.38
9899;BME280;4988;49.238;6.698;2022-07-11T13:18:43;99644.13;;;26.75;46.45
9899;BME280;4988;49.238;6.698;2022-07-11T13:21:08;99644.34;;;26.90;46.36
9899;BME280;4988;49.238;6.698;2022-07-11T13:23:37;99648.50;;;26.94;45.43
9899;BME280;4988;49.238;6.698;2022-07-11T13:26:05;99643.97;;;26.77;45.44
9899;BME280;4988;49.238;6.698;2022-07-11T13:28:31;99645.28;;;26.73;45.93
9899;BME280;4988;49.238;6.698;2022-07-11T13:30:56;99647.78;;;26.92;45.37
9899;BME280;4988;49.238;6.698;2022-07-11T13:33:23;99646.00;;;27.18;44.83
9899;BME280;4988;49.238;6.698;2022-07-11T13:35:49;99646.16;;;27.16;45.21
9899;BME280;4988;49.238;6.698;2022-07-11T13:38:15;99648.53;;;27.11;45.71
9899;BME280;4988;49.238;6.698;2022-07-11T13:40:41;99646.84;;;27.18;45.01
9899;BME280;4988;49.238;6.698;2022-07-11T13:43:08;99640.41;;;27.36;45.37
9899;BME280;4988;49.238;6.698;2022-07-11T13:45:34;99636.06;;;27.59;44.58
9899;BME280;4988;49.238;6.698;2022-07-11T13:48:00;99642.75;;;27.82;43.31